Time;durP1;ratioP1;P1;durP2;ratioP2;P2;SDS_P1;SDS_P2;PMS_P1;PMS_P2;Temp;Humidity;BMP_temperature;BMP_pressure;BME280_temperature;BME280_humidity;BME280_pressure;Samples;Min_cycle;Max_cycle;Signal;HPM_P1;HPM_P2
2023/09/23 00:01:49;;;;;;;46.20;8.93;;;;;;;;;;6247777;22;20027;-61
2023/09/23 00:04:16;;;;;;;40.13;8.80;;;;;;;;;;6275027;22;20027;-61
2023/09/23 00:06:43;;;;;;;46.13;9.43;;;;;;;;;;6274381;22;20762;-61
2023/09/23 00:09:11;;;;;;;33.70;9.00;;;;;;;;;;6275072;22;20382;-61
2023/09/23 00:11:37;;;;;;;33.33;8.30;;;;;;;;;;6274586;22;20307;-62
2023/09/23 00:14:05;;;;;;;31.88;8.85;;;;;;;;;;6247530;22;20027;-61
2023/09/23 00:16:33;;;;;;;34.85;8.85;;;;;;;;;;6274943;22;20012;-61
2023/09/23 00:18:59;;;;;;;38.58;9.13;;;;;;;;;;6274731;22;20020;-61
2023/09/23 00:21:26;;;;;;;63.65;10.27;;;;;;;;;;6275117;22;20015;-61
2023/09/23 00:23:53;;;;;;;45.92;9.60;;;;;;;;;;6275240;22;20103;-60
2023/09/23 00:26:22;;;;;;;32.65;8.52;;;;;;;;;;6247692;22;20016;-60
2023/09/23 00:28:51;;;;;;;47.78;9.38;;;;;;;;;;6274628;22;20016;-61
2023/09/23 00:31:18;;;;;;;47.63;9.10;;;;;;;;;;6247549;22;20035;-61
2023/09/23 00:33:45;;;;;;;39.72;8.77;;;;;;;;;;6248193;22;20030;-62
2023/09/23 00:36:12;;;;;;;36.78;8.80;;;;;;;;;;6242821;23;20024;-61
2023/09/23 00:38:40;;;;;;;36.65;9.70;;;;;;;;;;6243878;22;20091;-61
2023/09/23 00:41:08;;;;;;;37.58;9.75;;;;;;;;;;6243991;22;20012;-61
2023/09/23 00:43:35;;;;;;;38.25;9.68;;;;;;;;;;6244268;22;20050;-61
2023/09/23 00:46:05;;;;;;;49.00;9.75;;;;;;;;;;6244063;23;20095;-61
2023/09/23 00:48:36;;;;;;;62.05;11.07;;;;;;;;;;6242547;23;20020;-60
2023/09/23 00:51:03;;;;;;;30.20;9.70;;;;;;;;;;6244396;22;20027;-61
2023/09/23 00:53:30;;;;;;;42.45;9.77;;;;;;;;;;6242632;23;20020;-61
2023/09/23 00:56:00;;;;;;;32.05;8.45;;;;;;;;;;6242819;23;20020;-61
2023/09/23 00:58:27;;;;;;;27.23;9.63;;;;;;;;;;6243807;22;20350;-61
2023/09/23 01:00:55;;;;;;;37.08;9.65;;;;;;;;;;6242351;23;20020;-61
2023/09/23 01:03:22;;;;;;;32.65;9.18;;;;;;;;;;6244543;22;20475;-62
2023/09/23 01:06:14;;;;;;;24.50;9.23;;;;;;;;;;6243060;23;20047;-62
2023/09/23 01:08:41;;;;;;;32.08;9.65;;;;;;;;;;6244680;23;20019;-61
2023/09/23 01:11:08;;;;;;;32.25;10.13;;;;;;;;;;6246087;22;20022;-61
2023/09/23 01:13:35;;;;;;;43.30;9.98;;;;;;;;;;6246013;22;20016;-62
2023/09/23 01:16:06;;;;;;;39.15;10.23;;;;;;;;;;6245649;22;20030;-62
2023/09/23 01:18:34;;;;;;;60.35;11.35;;;;;;;;;;6244469;23;20095;-60
2023/09/23 01:21:02;;;;;;;45.67;10.40;;;;;;;;;;6219603;23;20023;-60
2023/09/23 01:23:29;;;;;;;20.00;8.95;;;;;;;;;;6245678;22;20088;-60
2023/09/23 01:25:57;;;;;;;44.65;10.95;;;;;;;;;;6245674;22;20024;-59
2023/09/23 01:28:23;;;;;;;43.10;10.13;;;;;;;;;;6245559;22;20373;-61
2023/09/23 01:30:51;;;;;;;24.98;9.52;;;;;;;;;;6245756;22;20486;-61
2023/09/23 01:33:18;;;;;;;33.33;10.65;;;;;;;;;;6246369;22;20084;-60
2023/09/23 01:35:45;;;;;;;39.67;10.20;;;;;;;;;;6259021;22;20016;-60
2023/09/23 01:38:15;;;;;;;29.27;10.48;;;;;;;;;;6276300;22;20030;-60
2023/09/23 01:40:43;;;;;;;41.72;10.73;;;;;;;;;;6249024;22;20027;-60
2023/09/23 01:43:11;;;;;;;30.17;10.05;;;;;;;;;;6275955;22;20095;-60
2023/09/23 01:45:38;;;;;;;75.18;12.65;;;;;;;;;;6276347;22;20039;-61
2023/09/23 01:48:07;;;;;;;39.55;9.93;;;;;;;;;;6249519;22;20384;-60
2023/09/23 01:50:34;;;;;;;30.98;9.77;;;;;;;;;;6276462;22;20069;-60
2023/09/23 01:53:01;;;;;;;34.15;10.20;;;;;;;;;;6276180;22;20016;-60
2023/09/23 01:55:28;;;;;;;31.85;10.73;;;;;;;;;;6249079;22;20019;-60
2023/09/23 01:57:55;;;;;;;53.97;11.13;;;;;;;;;;6249132;22;20020;-61
2023/09/23 02:03:41;;;;;;;70.28;12.07;;;;;;;;;;6273469;22;20027;-61
2023/09/23 02:06:08;;;;;;;32.35;11.55;;;;;;;;;;6249567;22;20044;-60
2023/09/23 02:08:35;;;;;;;32.60;9.40;;;;;;;;;;6248841;22;20026;-61
2023/09/23 02:11:02;;;;;;;23.88;9.90;;;;;;;;;;6276304;22;20030;-61
2023/09/23 02:13:29;;;;;;;33.42;9.98;;;;;;;;;;6276186;22;20027;-62
2023/09/23 02:15:57;;;;;;;40.17;10.30;;;;;;;;;;6276416;22;20133;-61
2023/09/23 02:18:26;;;;;;;37.75;10.35;;;;;;;;;;6249493;22;20066;-62
2023/09/23 02:20:53;;;;;;;24.10;9.38;;;;;;;;;;6276381;22;20019;-61
2023/09/23 02:23:21;;;;;;;26.50;10.95;;;;;;;;;;6276197;22;20343;-62
2023/09/23 02:25:50;;;;;;;35.78;11.77;;;;;;;;;;6248998;22;20023;-60
2023/09/23 02:28:18;;;;;;;28.55;9.98;;;;;;;;;;6276331;22;20079;-61
2023/09/23 02:30:44;;;;;;;25.23;9.57;;;;;;;;;;6249087;22;20027;-61
2023/09/23 02:33:12;;;;;;;37.78;9.88;;;;;;;;;;6248827;22;20011;-62
2023/09/23 02:35:39;;;;;;;25.10;10.00;;;;;;;;;;6276147;22;20026;-61
2023/09/23 02:38:05;;;;;;;30.70;10.70;;;;;;;;;;6249014;22;20019;-61
2023/09/23 02:40:32;;;;;;;46.78;10.88;;;;;;;;;;6275872;22;20090;-59
2023/09/23 02:42:59;;;;;;;28.42;10.85;;;;;;;;;;6275688;22;20412;-60
2023/09/23 02:45:26;;;;;;;39.58;9.82;;;;;;;;;;6276480;22;20082;-61
2023/09/23 02:47:53;;;;;;;36.22;10.35;;;;;;;;;;6275862;22;20449;-64
2023/09/23 02:50:20;;;;;;;36.88;11.90;;;;;;;;;;6248512;22;20016;-62
2023/09/23 02:52:50;;;;;;;34.15;9.85;;;;;;;;;;6275293;22;20094;-62
2023/09/23 02:55:19;;;;;;;33.20;9.88;;;;;;;;;;6248702;22;20380;-61
2023/09/23 02:57:49;;;;;;;34.67;10.73;;;;;;;;;;6276180;22;20019;-62
2023/09/23 03:15:33;;;;;;;43.60;9.45;;;;;;;;;;6302058;22;20047;-62
2023/09/23 03:18:00;;;;;;;21.42;9.80;;;;;;;;;;6267393;22;20028;-60
2023/09/23 03:20:27;;;;;;;32.72;10.02;;;;;;;;;;6306218;22;20023;-60
2023/09/23 03:22:55;;;;;;;34.17;9.05;;;;;;;;;;6310899;22;20020;-60
2023/09/23 03:25:23;;;;;;;34.38;9.60;;;;;;;;;;6307694;22;20011;-60
2023/09/23 03:27:52;;;;;;;37.22;9.80;;;;;;;;;;6279503;22;20011;-61
2023/09/23 03:30:19;;;;;;;29.15;10.38;;;;;;;;;;6306517;22;20011;-60
2023/09/23 03:32:46;;;;;;;30.38;10.23;;;;;;;;;;6279481;22;20053;-61
2023/09/23 03:35:23;;;;;;;45.30;11.10;;;;;;;;;;6305959;22;20094;-60
2023/09/23 03:37:51;;;;;;;39.75;10.40;;;;;;;;;;6280441;22;20021;-61
2023/09/23 03:40:24;;;;;;;27.30;9.48;;;;;;;;;;6282842;22;20433;-60
2023/09/23 03:42:52;;;;;;;;;;;;;;;;;;6310718;22;20025;-61
2023/09/23 03:45:19;;;;;;;21.75;8.48;;;;;;;;;;6310540;22;19921;-60
2023/09/23 03:47:46;;;;;;;30.13;9.45;;;;;;;;;;6309348;22;20041;-60
2023/09/23 03:50:14;;;;;;;37.85;9.85;;;;;;;;;;6282717;22;20015;-61
2023/09/23 03:52:41;;;;;;;50.40;9.63;;;;;;;;;;6282066;22;20124;-60
2023/09/23 03:55:09;;;;;;;35.80;9.48;;;;;;;;;;6282854;22;20019;-61
2023/09/23 03:57:38;;;;;;;78.90;12.13;;;;;;;;;;6256589;22;20015;-60
2023/09/23 04:00:17;;;;;;;35.45;9.90;;;;;;;;;;6256675;22;20023;-60
2023/09/23 04:02:47;;;;;;;23.92;10.02;;;;;;;;;;6309142;22;20155;-60
2023/09/23 04:05:14;;;;;;;33.20;9.90;;;;;;;;;;6309205;22;20072;-60
2023/09/23 04:07:46;;;;;;;29.90;8.95;;;;;;;;;;6280676;22;20433;-59
2023/09/23 04:10:13;;;;;;;38.88;9.35;;;;;;;;;;6279678;22;20019;-60
2023/09/23 04:12:41;;;;;;;81.25;12.73;;;;;;;;;;6307074;22;20333;-61
2023/09/23 04:15:08;;;;;;;33.28;10.00;;;;;;;;;;6280378;22;20094;-61
2023/09/23 04:17:35;;;;;;;26.35;8.57;;;;;;;;;;6307257;22;20058;-60
2023/09/23 04:20:03;;;;;;;33.47;10.10;;;;;;;;;;6306683;22;20019;-60
2023/09/23 04:22:30;;;;;;;32.22;10.23;;;;;;;;;;6306706;22;20018;-60
2023/09/23 04:24:57;;;;;;;29.60;10.20;;;;;;;;;;6307011;22;20019;-61
2023/09/23 04:27:26;;;;;;;32.83;10.02;;;;;;;;;;6307535;22;20094;-60
2023/09/23 04:29:54;;;;;;;37.65;10.52;;;;;;;;;;6280582;22;20045;-60
2023/09/23 04:32:20;;;;;;;29.35;8.98;;;;;;;;;;6306159;22;20015;-60
2023/09/23 04:34:47;;;;;;;29.65;9.32;;;;;;;;;;6306658;22;20102;-60
2023/09/23 04:37:14;;;;;;;37.75;11.00;;;;;;;;;;6306291;22;20372;-60
2023/09/23 04:39:40;;;;;;;40.97;10.43;;;;;;;;;;6306815;22;20015;-60
2023/09/23 04:42:07;;;;;;;36.00;10.88;;;;;;;;;;6308631;22;20015;-60
2023/09/23 04:44:34;;;;;;;40.08;10.68;;;;;;;;;;6308568;22;20015;-60
2023/09/23 04:47:00;;;;;;;21.08;9.38;;;;;;;;;;6308729;22;20007;-60
2023/09/23 04:49:27;;;;;;;39.75;10.82;;;;;;;;;;6308511;22;20078;-60
2023/09/23 04:51:54;;;;;;;36.63;10.35;;;;;;;;;;6308844;22;20015;-60
2023/09/23 04:54:22;;;;;;;38.85;10.00;;;;;;;;;;6309186;22;20604;-60
2023/09/23 04:56:50;;;;;;;36.50;9.90;;;;;;;;;;6308400;22;20026;-60
2023/09/23 04:59:17;;;;;;;29.77;9.20;;;;;;;;;;6308636;22;20019;-60
2023/09/23 05:01:45;;;;;;;47.88;11.52;;;;;;;;;;6308041;22;20415;-60
2023/09/23 05:04:13;;;;;;;44.90;11.30;;;;;;;;;;6308541;22;20050;-60
2023/09/23 05:06:39;;;;;;;66.97;11.88;;;;;;;;;;6308571;22;20026;-60
2023/09/23 05:09:08;;;;;;;32.78;9.93;;;;;;;;;;6308494;22;20372;-60
2023/09/23 05:11:35;;;;;;;24.48;9.63;;;;;;;;;;6308407;22;20035;-60
2023/09/23 05:14:05;;;;;;;35.30;9.73;;;;;;;;;;6308336;22;20019;-60
2023/09/23 05:16:32;;;;;;;31.60;9.40;;;;;;;;;;6308261;22;20019;-60
2023/09/23 05:18:59;;;;;;;37.33;9.75;;;;;;;;;;6280807;22;20042;-60
2023/09/23 05:21:26;;;;;;;43.15;9.68;;;;;;;;;;6308329;22;20019;-62
2023/09/23 05:23:52;;;;;;;32.15;9.63;;;;;;;;;;6307966;22;20019;-60
2023/09/23 05:26:22;;;;;;;24.98;8.80;;;;;;;;;;6307971;22;20011;-60
2023/09/23 05:28:50;;;;;;;28.70;9.90;;;;;;;;;;6307548;22;20023;-60
2023/09/23 05:31:17;;;;;;;28.70;9.73;;;;;;;;;;6307998;22;20022;-60
2023/09/23 05:33:44;;;;;;;76.80;11.77;;;;;;;;;;6307738;22;20016;-60
2023/09/23 05:36:11;;;;;;;37.00;10.38;;;;;;;;;;6307831;22;20015;-60
2023/09/23 05:38:38;;;;;;;30.17;9.35;;;;;;;;;;6307424;22;20484;-60
2023/09/23 05:41:05;;;;;;;32.88;10.32;;;;;;;;;;6307146;22;20326;-60
2023/09/23 05:43:33;;;;;;;34.72;9.95;;;;;;;;;;6307545;22;20015;-61
2023/09/23 05:46:04;;;;;;;34.58;10.05;;;;;;;;;;6307721;22;20019;-60
2023/09/23 05:48:31;;;;;;;50.83;11.93;;;;;;;;;;6307530;22;20337;-62
2023/09/23 05:51:04;;;;;;;44.03;11.55;;;;;;;;;;6307593;22;20342;-60
2023/09/23 05:53:33;;;;;;;36.47;11.13;;;;;;;;;;6307239;22;20087;-61
2023/09/23 05:56:00;;;;;;;33.38;10.65;;;;;;;;;;6307432;22;20345;-61
2023/09/23 05:58:27;;;;;;;37.55;11.85;;;;;;;;;;6307238;22;20023;-61
2023/09/23 06:00:53;;;;;;;29.85;11.80;;;;;;;;;;6307447;22;20023;-61
2023/09/23 06:03:20;;;;;;;28.30;12.70;;;;;;;;;;6307642;22;20019;-61
2023/09/23 06:05:47;;;;;;;25.45;11.82;;;;;;;;;;6280458;22;20441;-60
2023/09/23 06:08:14;;;;;;;34.25;13.27;;;;;;;;;;6307500;22;20094;-61
2023/09/23 06:10:40;;;;;;;29.73;14.02;;;;;;;;;;6307468;22;20023;-60
2023/09/23 06:13:07;;;;;;;35.63;14.38;;;;;;;;;;6307567;22;20105;-61
2023/09/23 06:15:34;;;;;;;63.65;17.08;;;;;;;;;;6307037;22;20043;-61
2023/09/23 06:18:01;;;;;;;42.17;16.02;;;;;;;;;;6307677;22;20082;-60
2023/09/23 06:20:29;;;;;;;43.45;18.70;;;;;;;;;;6307393;22;20011;-60
2023/09/23 06:22:55;;;;;;;53.65;17.55;;;;;;;;;;6306973;22;20019;-60
2023/09/23 06:25:22;;;;;;;48.03;17.60;;;;;;;;;;6279747;22;20042;-61
2023/09/23 06:27:49;;;;;;;68.70;19.33;;;;;;;;;;6306894;22;20011;-60
2023/09/23 06:30:15;;;;;;;34.20;15.82;;;;;;;;;;6307141;22;20019;-60
2023/09/23 06:32:42;;;;;;;44.58;16.85;;;;;;;;;;6306990;22;20022;-59
2023/09/23 06:35:10;;;;;;;37.13;16.83;;;;;;;;;;6306780;22;20100;-60
2023/09/23 06:37:37;;;;;;;41.55;15.20;;;;;;;;;;6306843;22;20018;-60
2023/09/23 06:40:04;;;;;;;33.67;15.80;;;;;;;;;;6306987;22;20077;-60
2023/09/23 06:42:30;;;;;;;64.63;18.20;;;;;;;;;;6305824;22;20437;-61
2023/09/23 06:44:58;;;;;;;38.25;13.10;;;;;;;;;;6306797;22;20458;-60
2023/09/23 06:47:26;;;;;;;41.60;13.93;;;;;;;;;;6306326;22;20019;-60
2023/09/23 06:49:52;;;;;;;31.40;13.88;;;;;;;;;;6307085;22;20018;-60
2023/09/23 06:52:19;;;;;;;49.60;13.38;;;;;;;;;;6307156;22;20015;-60
2023/09/23 06:54:46;;;;;;;68.55;16.70;;;;;;;;;;6279450;22;20026;-60
2023/09/23 06:57:13;;;;;;;40.38;12.80;;;;;;;;;;6307238;22;20121;-60
2023/09/23 06:59:40;;;;;;;36.17;13.50;;;;;;;;;;6306683;22;20011;-59
2023/09/23 07:02:06;;;;;;;39.10;13.35;;;;;;;;;;6306037;22;20041;-60
2023/09/23 07:04:35;;;;;;;38.13;12.32;;;;;;;;;;6306245;22;20012;-60
2023/09/23 07:07:02;;;;;;;28.75;13.65;;;;;;;;;;6306416;22;20019;-61
2023/09/23 07:09:30;;;;;;;38.90;13.68;;;;;;;;;;6306105;22;20349;-60
2023/09/23 07:11:57;;;;;;;37.00;14.30;;;;;;;;;;6306826;22;20015;-60
2023/09/23 07:14:24;;;;;;;55.95;14.38;;;;;;;;;;6306024;22;20064;-60
2023/09/23 07:16:51;;;;;;;35.38;14.15;;;;;;;;;;6305352;22;20342;-61
2023/09/23 07:19:19;;;;;;;51.10;15.50;;;;;;;;;;6306628;22;20015;-60
2023/09/23 07:21:46;;;;;;;76.85;16.88;;;;;;;;;;6306257;22;20015;-60
2023/09/23 07:24:13;;;;;;;36.75;14.05;;;;;;;;;;6306823;22;20031;-60
2023/09/23 07:26:40;;;;;;;40.88;12.93;;;;;;;;;;6306453;22;20015;-59
2023/09/23 07:29:06;;;;;;;34.53;12.00;;;;;;;;;;6278645;22;20015;-60
2023/09/23 07:31:33;;;;;;;40.75;12.88;;;;;;;;;;6305708;22;20019;-60
2023/09/23 07:34:00;;;;;;;42.35;14.05;;;;;;;;;;6306342;22;20521;-60
2023/09/23 07:36:26;;;;;;;25.05;9.45;;;;;;;;;;6306923;22;20113;-60
2023/09/23 07:38:53;;;;;;;29.10;9.35;;;;;;;;;;6306154;22;20468;-60
2023/09/23 07:41:20;;;;;;;29.73;7.63;;;;;;;;;;6306229;22;20026;-60
2023/09/23 07:43:48;;;;;;;22.33;6.78;;;;;;;;;;6306556;22;20021;-60
2023/09/23 07:46:15;;;;;;;35.03;6.95;;;;;;;;;;6306358;22;20030;-60
2023/09/23 07:48:42;;;;;;;69.85;8.95;;;;;;;;;;6306002;22;20035;-60
2023/09/23 07:51:12;;;;;;;29.45;6.35;;;;;;;;;;6306703;22;20086;-60
2023/09/23 07:53:38;;;;;;;21.25;5.38;;;;;;;;;;6306009;22;20023;-60
2023/09/23 07:56:05;;;;;;;35.25;5.85;;;;;;;;;;6305925;22;20019;-60
2023/09/23 07:58:32;;;;;;;21.30;5.38;;;;;;;;;;6305656;22;20015;-60
2023/09/23 08:00:58;;;;;;;46.45;5.65;;;;;;;;;;6305936;22;20008;-60
2023/09/23 08:03:26;;;;;;;23.38;4.40;;;;;;;;;;6306587;22;20068;-59
2023/09/23 08:05:53;;;;;;;24.50;4.13;;;;;;;;;;6305970;22;20038;-59
2023/09/23 08:08:20;;;;;;;19.98;3.47;;;;;;;;;;6306001;22;20094;-59
2023/09/23 08:10:49;;;;;;;29.05;3.63;;;;;;;;;;6278993;22;20017;-59
2023/09/23 08:13:16;;;;;;;23.38;3.42;;;;;;;;;;6306195;22;20011;-59
2023/09/23 08:15:45;;;;;;;45.15;4.85;;;;;;;;;;6306032;22;20098;-58
2023/09/23 08:18:12;;;;;;;15.07;2.97;;;;;;;;;;6273857;22;20069;-59
2023/09/23 08:20:40;;;;;;;26.63;3.78;;;;;;;;;;6274664;22;20054;-59
2023/09/23 08:23:06;;;;;;;28.20;3.70;;;;;;;;;;6274761;22;20019;-58
2023/09/23 08:25:34;;;;;;;34.45;4.00;;;;;;;;;;6274639;22;20011;-59
2023/09/23 08:28:01;;;;;;;26.13;3.30;;;;;;;;;;6274833;22;20438;-60
2023/09/23 08:30:28;;;;;;;36.83;3.72;;;;;;;;;;6275358;22;20024;-60
2023/09/23 08:32:55;;;;;;;27.35;3.05;;;;;;;;;;6275033;22;20015;-60
2023/09/23 08:35:24;;;;;;;25.83;3.35;;;;;;;;;;6274832;22;20011;-60
2023/09/23 08:37:53;;;;;;;29.90;4.10;;;;;;;;;;6274932;22;20127;-59
2023/09/23 08:40:20;;;;;;;22.83;3.33;;;;;;;;;;6275037;22;20024;-59
2023/09/23 08:42:50;;;;;;;67.88;5.40;;;;;;;;;;6274687;22;20008;-60
2023/09/23 08:45:21;;;;;;;26.90;3.78;;;;;;;;;;6275163;22;20408;-60
2023/09/23 08:47:48;;;;;;;19.77;2.45;;;;;;;;;;6275118;22;20012;-60
2023/09/23 08:50:15;;;;;;;19.83;2.72;;;;;;;;;;6274509;22;20384;-60
2023/09/23 08:52:42;;;;;;;33.33;3.35;;;;;;;;;;6274762;22;20046;-58
2023/09/23 08:55:10;;;;;;;21.08;2.80;;;;;;;;;;6275069;22;20043;-60
2023/09/23 08:57:37;;;;;;;53.80;4.95;;;;;;;;;;6273078;22;20047;-60
2023/09/23 09:00:08;;;;;;;13.45;2.88;;;;;;;;;;6275147;22;20020;-59
2023/09/23 09:02:36;;;;;;;20.30;2.72;;;;;;;;;;6273452;22;20376;-60
2023/09/23 09:05:04;;;;;;;22.02;3.47;;;;;;;;;;6273242;22;20020;-60
2023/09/23 09:07:35;;;;;;;21.80;3.00;;;;;;;;;;6274532;22;20343;-59
2023/09/23 09:10:03;;;;;;;33.28;3.45;;;;;;;;;;6274260;22;20345;-59
2023/09/23 09:12:32;;;;;;;29.85;3.38;;;;;;;;;;6275046;22;20020;-60
2023/09/23 09:14:58;;;;;;;35.25;3.45;;;;;;;;;;6273248;22;20012;-59
2023/09/23 09:17:25;;;;;;;12.82;2.58;;;;;;;;;;6292578;22;20097;-59
2023/09/23 09:19:52;;;;;;;19.05;2.58;;;;;;;;;;6305616;22;20011;-59
2023/09/23 09:22:22;;;;;;;21.83;2.72;;;;;;;;;;6305316;22;20086;-60
2023/09/23 09:24:49;;;;;;;47.78;4.13;;;;;;;;;;6305521;22;20041;-60
2023/09/23 09:27:16;;;;;;;18.73;2.50;;;;;;;;;;6306670;22;20502;-60
2023/09/23 09:29:47;;;;;;;15.63;2.30;;;;;;;;;;6307160;22;20026;-60
2023/09/23 09:32:22;;;;;;;17.75;2.35;;;;;;;;;;6307235;22;20098;-59
2023/09/23 09:34:49;;;;;;;30.95;3.10;;;;;;;;;;6306848;22;20093;-60
2023/09/23 09:37:18;;;;;;;39.92;3.85;;;;;;;;;;6306921;22;20065;-60
2023/09/23 09:39:59;;;;;;;49.60;4.22;;;;;;;;;;6307067;22;20505;-61
2023/09/23 09:42:28;;;;;;;47.08;4.18;;;;;;;;;;6254067;22;20322;-62
2023/09/23 09:44:55;;;;;;;18.58;2.28;;;;;;;;;;6307022;22;20094;-62
2023/09/23 09:47:23;;;;;;;32.13;3.42;;;;;;;;;;6280086;22;20015;-61
2023/09/23 09:49:54;;;;;;;39.60;3.90;;;;;;;;;;6306948;22;20011;-64
2023/09/23 09:52:22;;;;;;;14.93;2.38;;;;;;;;;;6307286;22;20499;-65
2023/09/23 09:54:56;;;;;;;52.90;4.40;;;;;;;;;;6307350;22;20099;-63
2023/09/23 09:57:25;;;;;;;23.88;2.75;;;;;;;;;;6307449;22;20460;-64
2023/09/23 09:59:59;;;;;;;43.50;3.80;;;;;;;;;;6306512;22;20314;-64
2023/09/23 10:02:26;;;;;;;27.15;2.85;;;;;;;;;;6306876;22;20328;-61
2023/09/23 10:04:53;;;;;;;16.73;2.05;;;;;;;;;;6307116;22;20648;-64
2023/09/23 10:07:23;;;;;;;27.23;2.55;;;;;;;;;;6307107;22;20018;-61
2023/09/23 10:09:53;;;;;;;22.38;2.65;;;;;;;;;;6254578;22;20068;-61
2023/09/23 10:12:25;;;;;;;33.33;3.08;;;;;;;;;;6254917;22;20016;-62
2023/09/23 10:14:53;;;;;;;20.55;2.30;;;;;;;;;;6307243;22;20072;-63
2023/09/23 10:17:20;;;;;;;15.80;2.17;;;;;;;;;;6307168;22;20433;-61
2023/09/23 10:19:53;;;;;;;18.58;2.40;;;;;;;;;;6279807;22;20019;-65
2023/09/23 10:22:20;;;;;;;23.70;2.17;;;;;;;;;;6279774;22;20019;-66
2023/09/23 10:25:00;;;;;;;45.88;3.42;;;;;;;;;;6307127;22;20011;-66
2023/09/23 10:27:27;;;;;;;21.52;2.40;;;;;;;;;;6307664;22;20014;-68
2023/09/23 10:30:00;;;;;;;18.33;2.00;;;;;;;;;;6306760;22;20348;-60
2023/09/23 10:32:32;;;;;;;25.67;2.47;;;;;;;;;;6307102;22;20044;-66
2023/09/23 10:35:05;;;;;;;27.67;2.58;;;;;;;;;;6280304;22;20015;-70
2023/09/23 10:37:35;;;;;;;22.70;1.85;;;;;;;;;;6306786;22;20015;-61
2023/09/23 10:40:12;;;;;;;27.20;2.47;;;;;;;;;;6280012;22;20022;-78
2023/09/23 10:42:42;;;;;;;49.70;3.97;;;;;;;;;;6279685;22;20432;-62
2023/09/23 10:45:09;;;;;;;16.40;2.20;;;;;;;;;;6307468;22;20015;-61
2023/09/23 10:47:36;;;;;;;13.80;1.80;;;;;;;;;;6306734;22;20467;-62
2023/09/23 10:50:08;;;;;;;14.73;1.85;;;;;;;;;;6306335;22;20043;-61
2023/09/23 10:52:35;;;;;;;18.33;2.22;;;;;;;;;;6306624;22;20073;-61
2023/09/23 10:55:02;;;;;;;20.77;2.95;;;;;;;;;;6306339;22;20453;-62
2023/09/23 10:57:29;;;;;;;22.17;2.45;;;;;;;;;;6307267;22;20015;-67
2023/09/23 10:59:56;;;;;;;17.63;2.25;;;;;;;;;;6306804;22;20019;-65
2023/09/23 11:02:24;;;;;;;26.98;3.25;;;;;;;;;;6306053;22;20011;-64
2023/09/23 11:04:55;;;;;;;28.90;2.85;;;;;;;;;;6306527;22;20014;-65
2023/09/23 11:07:24;;;;;;;16.45;2.42;;;;;;;;;;6306112;22;20015;-64
2023/09/23 11:09:52;;;;;;;33.80;3.35;;;;;;;;;;6306545;22;20039;-64
2023/09/23 11:12:20;;;;;;;16.38;2.20;;;;;;;;;;6280492;22;20049;-63
2023/09/23 11:14:48;;;;;;;27.00;2.70;;;;;;;;;;6305967;22;20047;-65
2023/09/23 11:17:26;;;;;;;17.42;2.05;;;;;;;;;;6306397;22;20015;-64
2023/09/23 11:19:57;;;;;;;23.35;2.67;;;;;;;;;;6306397;22;20011;-65
2023/09/23 11:22:28;;;;;;;37.50;3.85;;;;;;;;;;6305599;22;20027;-64
2023/09/23 11:24:55;;;;;;;32.90;3.65;;;;;;;;;;6306365;22;20094;-65
2023/09/23 11:27:22;;;;;;;14.57;2.35;;;;;;;;;;6307093;22;20023;-66
2023/09/23 11:29:49;;;;;;;16.60;2.28;;;;;;;;;;6306036;22;20098;-61
2023/09/23 11:32:34;;;;;;;18.38;2.47;;;;;;;;;;6306579;22;20038;-66
2023/09/23 11:35:02;;;;;;;15.02;1.90;;;;;;;;;;6306452;22;20069;-65
2023/09/23 11:37:29;;;;;;;10.90;1.75;;;;;;;;;;6306288;22;20452;-60
2023/09/23 11:39:56;;;;;;;27.92;2.83;;;;;;;;;;6279311;22;20096;-65
2023/09/23 11:42:23;;;;;;;12.48;2.05;;;;;;;;;;6306854;22;20456;-60
2023/09/23 11:44:50;;;;;;;21.75;2.25;;;;;;;;;;6278974;22;20482;-63
2023/09/23 11:47:21;;;;;;;15.40;2.10;;;;;;;;;;6278959;22;20488;-64
2023/09/23 11:49:49;;;;;;;16.48;1.73;;;;;;;;;;6306275;22;20068;-65
2023/09/23 11:52:16;;;;;;;38.10;3.42;;;;;;;;;;6279196;22;20015;-68
2023/09/23 11:54:43;;;;;;;41.70;3.53;;;;;;;;;;6279078;22;20337;-65
2023/09/23 11:57:10;;;;;;;30.65;3.08;;;;;;;;;;6306662;22;20023;-65
2023/09/23 11:59:36;;;;;;;8.32;1.77;;;;;;;;;;6306429;22;20074;-64
2023/09/23 12:02:03;;;;;;;21.63;2.38;;;;;;;;;;6278795;22;20015;-66
2023/09/23 12:04:30;;;;;;;25.02;2.67;;;;;;;;;;6306191;22;20015;-65
2023/09/23 12:06:58;;;;;;;34.00;3.22;;;;;;;;;;6279041;22;20029;-66
2023/09/23 12:09:24;;;;;;;24.90;2.72;;;;;;;;;;6306708;22;20019;-65
2023/09/23 12:11:51;;;;;;;23.60;2.90;;;;;;;;;;6278990;22;20023;-66
2023/09/23 12:14:21;;;;;;;15.18;2.22;;;;;;;;;;6306447;22;20051;-65
2023/09/23 12:16:48;;;;;;;17.95;2.33;;;;;;;;;;6305878;22;20457;-66
2023/09/23 12:19:14;;;;;;;21.08;2.60;;;;;;;;;;6306351;22;20093;-65
2023/09/23 12:21:42;;;;;;;43.60;3.72;;;;;;;;;;6306211;22;20078;-66
2023/09/23 12:24:09;;;;;;;21.15;3.03;;;;;;;;;;6306244;22;20069;-67
2023/09/23 12:26:36;;;;;;;12.68;2.00;;;;;;;;;;6278767;22;20344;-66
2023/09/23 12:29:03;;;;;;;18.40;2.42;;;;;;;;;;6306147;22;20042;-65
2023/09/23 12:31:30;;;;;;;18.10;2.63;;;;;;;;;;6306165;22;20051;-65
2023/09/23 12:33:56;;;;;;;28.52;3.42;;;;;;;;;;6305995;22;20102;-65
2023/09/23 12:36:24;;;;;;;27.42;3.28;;;;;;;;;;6304614;22;20024;-65
2023/09/23 12:38:54;;;;;;;66.82;5.55;;;;;;;;;;6304778;22;20076;-67
2023/09/23 12:41:21;;;;;;;26.30;2.85;;;;;;;;;;6305030;22;20134;-67
2023/09/23 12:43:47;;;;;;;20.55;2.47;;;;;;;;;;6305803;22;20030;-66
2023/09/23 12:46:14;;;;;;;27.60;3.00;;;;;;;;;;6306143;22;20019;-65
2023/09/23 12:48:41;;;;;;;46.78;4.38;;;;;;;;;;6305708;22;20014;-67
2023/09/23 12:51:09;;;;;;;15.88;2.63;;;;;;;;;;6306129;22;20016;-65
2023/09/23 12:53:35;;;;;;;17.30;2.53;;;;;;;;;;6305943;22;20012;-65
2023/09/23 12:56:03;;;;;;;21.35;3.35;;;;;;;;;;6305870;22;20029;-65
2023/09/23 12:58:34;;;;;;;18.00;2.90;;;;;;;;;;6305585;22;20019;-65
2023/09/23 13:01:04;;;;;;;29.38;3.20;;;;;;;;;;6306084;22;20391;-65
2023/09/23 13:03:32;;;;;;;16.67;2.63;;;;;;;;;;6308131;22;20345;-61
2023/09/23 13:06:06;;;;;;;16.52;2.55;;;;;;;;;;6308024;22;20026;-62
2023/09/23 13:08:33;;;;;;;28.10;3.30;;;;;;;;;;6307532;22;20337;-63
2023/09/23 13:11:00;;;;;;;23.75;3.63;;;;;;;;;;6307716;22;20007;-63
2023/09/23 13:13:27;;;;;;;22.30;4.78;;;;;;;;;;6307327;22;20336;-63
2023/09/23 13:15:53;;;;;;;30.05;4.07;;;;;;;;;;6280496;22;20023;-62
2023/09/23 13:18:20;;;;;;;21.05;3.80;;;;;;;;;;6308465;22;20324;-62
2023/09/23 13:20:48;;;;;;;23.35;4.00;;;;;;;;;;6307790;22;20019;-62
2023/09/23 13:23:14;;;;;;;20.02;3.85;;;;;;;;;;6307351;22;20012;-62
2023/09/23 13:25:41;;;;;;;21.08;4.43;;;;;;;;;;6307136;22;20322;-62
2023/09/23 13:28:08;;;;;;;26.88;5.00;;;;;;;;;;6307716;22;20017;-63
2023/09/23 13:30:34;;;;;;;29.48;5.40;;;;;;;;;;6307704;22;20033;-65
2023/09/23 13:33:01;;;;;;;20.08;5.85;;;;;;;;;;6280794;22;20484;-62
2023/09/23 13:35:28;;;;;;;17.95;4.88;;;;;;;;;;6307352;22;20095;-63
2023/09/23 13:37:55;;;;;;;32.85;5.53;;;;;;;;;;6307452;22;20349;-62
2023/09/23 13:40:22;;;;;;;24.35;5.43;;;;;;;;;;6307710;22;20106;-62
2023/09/23 13:42:50;;;;;;;58.33;7.40;;;;;;;;;;6308276;22;20030;-66
2023/09/23 13:45:17;;;;;;;23.27;5.45;;;;;;;;;;6282661;22;20016;-63
2023/09/23 13:47:44;;;;;;;19.23;4.25;;;;;;;;;;6308805;22;20019;-62
2023/09/23 13:50:11;;;;;;;17.63;4.60;;;;;;;;;;6282834;22;20043;-62
2023/09/23 13:52:38;;;;;;;24.48;5.00;;;;;;;;;;6282485;22;20050;-63
2023/09/23 13:55:06;;;;;;;28.63;4.30;;;;;;;;;;6310432;22;20076;-64
2023/09/23 13:57:33;;;;;;;17.67;3.65;;;;;;;;;;6310626;22;20019;-67
2023/09/23 14:00:00;;;;;;;27.02;4.53;;;;;;;;;;6312212;22;20051;-62
2023/09/23 14:02:29;;;;;;;16.95;3.45;;;;;;;;;;6312404;22;20025;-64
2023/09/23 14:04:56;;;;;;;19.40;3.58;;;;;;;;;;6313382;22;20021;-63
2023/09/23 14:07:22;;;;;;;19.50;4.07;;;;;;;;;;6312347;22;20374;-63
2023/09/23 14:09:49;;;;;;;51.70;5.60;;;;;;;;;;6285098;22;20027;-66
2023/09/23 14:12:16;;;;;;;21.73;4.13;;;;;;;;;;6314022;22;20019;-63
2023/09/23 14:14:43;;;;;;;21.02;4.22;;;;;;;;;;6314288;22;20019;-64
2023/09/23 14:17:10;;;;;;;14.70;3.45;;;;;;;;;;6285323;22;20091;-63
2023/09/23 14:19:36;;;;;;;10.70;3.30;;;;;;;;;;6312616;22;20636;-62
2023/09/23 14:22:03;;;;;;;24.30;4.32;;;;;;;;;;6313266;22;20015;-62
2023/09/23 14:24:30;;;;;;;19.55;3.83;;;;;;;;;;6313301;22;20011;-63
2023/09/23 14:26:56;;;;;;;18.25;4.30;;;;;;;;;;6312584;22;20065;-62
2023/09/23 14:29:26;;;;;;;16.08;3.72;;;;;;;;;;6312394;22;20021;-62
2023/09/23 14:31:53;;;;;;;30.02;5.43;;;;;;;;;;6312772;22;20311;-62
2023/09/23 14:34:19;;;;;;;21.17;3.72;;;;;;;;;;6312871;22;20019;-65
2023/09/23 14:36:48;;;;;;;42.17;5.70;;;;;;;;;;6313794;22;20054;-62
2023/09/23 14:39:15;;;;;;;16.50;3.75;;;;;;;;;;6285947;22;20015;-63
2023/09/23 14:41:44;;;;;;;15.57;3.45;;;;;;;;;;6312568;22;20015;-63
2023/09/23 14:44:11;;;;;;;29.48;4.63;;;;;;;;;;6311933;22;20437;-64
2023/09/23 14:46:39;;;;;;;18.67;3.90;;;;;;;;;;6311915;22;20015;-65
2023/09/23 14:49:06;;;;;;;29.92;5.05;;;;;;;;;;6312225;22;20007;-66